< < Back
Terminal Aerodrome Forecast


Current Version              Previous Versions:   1  2  3  4  5  6  7  8  9  

Terminal Aerodrome Forecast

065
FTUS42 KTAE 232322
TAFTLH
TAF
KTLH 232322Z 2400/2424 09007KT P6SM FEW250
     FM241700 12007KT P6SM BKN035=

Latest METAR

181
SAUS80 KWBC 250100
MTRTLH
METAR KTLH 250053Z 09008KT 10SM FEW055 FEW250 29/17 A3015 RMK AO2 SLP208
T02890172


USA.gov is the U.S. government's official web portal to all federal, state and local government web resources and services.